createdAt,value
2022-10-23T00:01:39.619Z,10.00
2022-10-23T00:04:25.628Z,10.00
2022-10-23T00:06:53.290Z,10.00
2022-10-23T00:09:23.580Z,10.00
2022-10-23T00:11:52.547Z,10.00
2022-10-23T00:14:23.962Z,9.90
2022-10-23T00:16:52.251Z,9.90
2022-10-23T00:19:19.917Z,9.80
2022-10-23T00:21:47.667Z,9.80
2022-10-23T00:24:15.554Z,9.80
2022-10-23T00:26:43.526Z,9.90
2022-10-23T00:29:11.775Z,9.80
2022-10-23T00:31:39.946Z,9.90
2022-10-23T00:34:08.765Z,9.90
2022-10-23T00:36:37.580Z,9.90
2022-10-23T00:39:06.241Z,9.90
2022-10-23T00:41:34.703Z,9.90
2022-10-23T00:44:10.389Z,10.00
2022-10-23T00:46:39.519Z,9.90
2022-10-23T00:49:08.461Z,9.90
2022-10-23T00:51:43.657Z,9.90
2022-10-23T00:54:29.669Z,9.90
2022-10-23T00:57:01.487Z,10.00
2022-10-23T00:59:30.468Z,10.00
2022-10-23T01:01:58.994Z,9.80
2022-10-23T01:04:28.437Z,9.80
2022-10-23T01:07:18.593Z,9.80
2022-10-23T01:10:03.584Z,9.90
2022-10-23T01:12:44.928Z,9.90
2022-10-23T01:15:26.995Z,9.80
2022-10-23T01:18:13.085Z,9.90
2022-10-23T01:21:08.655Z,9.80
2022-10-23T01:24:01.966Z,9.70
2022-10-23T01:26:41.031Z,9.80
2022-10-23T01:29:31.686Z,9.90
2022-10-23T01:32:12.173Z,9.90
2022-10-23T01:34:43.077Z,9.90
2022-10-23T01:37:12.675Z,9.90
2022-10-23T01:39:48.259Z,9.70
2022-10-23T01:42:30.486Z,9.70
2022-10-23T01:45:07.426Z,9.60
2022-10-23T01:47:44.213Z,9.70
2022-10-23T01:50:15.685Z,9.80
2022-10-23T01:52:46.290Z,9.80
2022-10-23T01:55:15.429Z,9.80
2022-10-23T01:57:45.960Z,9.60
2022-10-23T02:00:16.820Z,9.50
2022-10-23T02:02:56.395Z,9.40
2022-10-23T02:05:33.623Z,9.50
2022-10-23T02:08:03.892Z,9.40
2022-10-23T02:11:07.476Z,9.30
2022-10-23T02:14:02.113Z,9.10
2022-10-23T02:16:58.029Z,9.10
2022-10-23T02:19:49.244Z,8.90
2022-10-23T02:22:21.816Z,8.90
2022-10-23T02:24:54.566Z,8.80
2022-10-23T02:27:45.242Z,8.60
2022-10-23T02:30:18.898Z,8.50
2022-10-23T02:32:55.047Z,8.60
2022-10-23T02:35:24.017Z,8.60
2022-10-23T02:38:01.363Z,8.60
2022-10-23T02:40:42.233Z,8.50
2022-10-23T02:43:30.097Z,8.50
2022-10-23T02:46:30.770Z,8.50
2022-10-23T02:49:13.934Z,8.60
2022-10-23T02:52:23.942Z,8.70
2022-10-23T02:54:57.795Z,8.70
2022-10-23T02:57:33.851Z,8.60
2022-10-23T03:00:03.759Z,8.70
2022-10-23T03:02:44.543Z,8.80
2022-10-23T03:05:20.439Z,8.90
2022-10-23T03:07:49.802Z,9.00
2022-10-23T03:10:18.990Z,9.00
2022-10-23T03:12:49.008Z,9.10
2022-10-23T03:15:17.862Z,9.10
2022-10-23T03:17:45.736Z,9.20
2022-10-23T03:20:15.793Z,9.20
2022-10-23T03:22:45.429Z,9.30
2022-10-23T03:25:13.676Z,9.30
2022-10-23T03:27:41.368Z,9.40
2022-10-23T03:30:11.997Z,9.40
2022-10-23T03:32:41.652Z,9.40
2022-10-23T03:35:09.659Z,9.30
2022-10-23T03:37:37.462Z,9.40
2022-10-23T03:40:05.707Z,9.50
2022-10-23T03:42:35.761Z,9.50
2022-10-23T03:45:03.892Z,9.50
2022-10-23T03:47:32.864Z,9.50
2022-10-23T03:50:01.898Z,9.40
2022-10-23T03:52:30.753Z,9.40
2022-10-23T03:54:58.561Z,9.50
2022-10-23T03:57:26.811Z,9.50
2022-10-23T03:59:54.543Z,9.50
2022-10-23T04:02:22.588Z,9.40
2022-10-23T04:04:53.109Z,9.50
2022-10-23T04:07:21.078Z,9.50
2022-10-23T04:09:50.153Z,9.50
2022-10-23T04:12:18.132Z,9.50
2022-10-23T04:14:45.798Z,9.50
2022-10-23T04:17:13.688Z,9.40
2022-10-23T04:19:43.575Z,9.40
2022-10-23T04:22:11.978Z,9.30
2022-10-23T04:24:45.472Z,9.40
2022-10-23T04:27:18.676Z,9.40
2022-10-23T04:29:46.639Z,9.40
2022-10-23T04:32:14.638Z,9.40
2022-10-23T04:34:44.720Z,9.40
2022-10-23T04:37:12.364Z,9.50
2022-10-23T04:39:40.020Z,9.50
2022-10-23T04:42:07.626Z,9.40
2022-10-23T04:44:36.335Z,9.50
2022-10-23T04:47:04.287Z,9.50
2022-10-23T04:49:33.311Z,9.40
2022-10-23T04:52:13.081Z,9.40
2022-10-23T04:54:49.958Z,9.50
2022-10-23T04:57:47.187Z,9.30
2022-10-23T05:00:16.486Z,9.20
2022-10-23T05:02:54.083Z,9.10
2022-10-23T05:05:22.901Z,9.10
2022-10-23T05:08:02.485Z,9.00
2022-10-23T05:10:50.828Z,9.10
2022-10-23T05:13:20.224Z,9.10
2022-10-23T05:15:49.709Z,9.00
2022-10-23T05:18:26.382Z,9.00
2022-10-23T05:21:04.232Z,9.00
2022-10-23T05:23:34.003Z,9.00
2022-10-23T05:26:04.776Z,9.00
2022-10-23T05:28:33.470Z,8.90
2022-10-23T05:31:04.572Z,9.00
2022-10-23T05:33:37.060Z,9.10
2022-10-23T05:36:06.675Z,9.10
2022-10-23T05:38:36.572Z,9.10
2022-10-23T05:41:11.660Z,9.00
2022-10-23T05:43:39.408Z,9.10
2022-10-23T05:46:29.807Z,9.00
2022-10-23T05:49:26.844Z,8.90
2022-10-23T05:52:13.484Z,8.70
2022-10-23T05:55:01.646Z,8.70
2022-10-23T05:58:03.407Z,8.70
2022-10-23T06:00:57.291Z,8.80
2022-10-23T06:03:52.297Z,8.90
2022-10-23T06:06:23.684Z,8.80
2022-10-23T06:08:51.863Z,9.00
2022-10-23T06:11:22.829Z,9.00
2022-10-23T06:14:01.092Z,9.10
2022-10-23T06:16:29.617Z,9.10
2022-10-23T06:18:58.717Z,9.30
2022-10-23T06:21:26.558Z,9.30
2022-10-23T06:23:56.689Z,9.40
2022-10-23T06:26:33.609Z,9.50
2022-10-23T06:29:08.057Z,9.60
2022-10-23T06:31:37.026Z,9.50
2022-10-23T06:34:06.293Z,9.70
2022-10-23T06:36:34.291Z,9.80
2022-10-23T06:39:24.398Z,9.90
2022-10-23T06:42:26.586Z,10.10
2022-10-23T06:44:58.038Z,10.20
2022-10-23T06:47:52.120Z,10.00
2022-10-23T06:50:39.760Z,10.00
2022-10-23T06:53:13.069Z,9.80
2022-10-23T06:55:50.057Z,9.90
2022-10-23T06:58:21.261Z,10.20
2022-10-23T07:01:13.858Z,10.40
2022-10-23T07:03:43.926Z,10.50
2022-10-23T07:06:13.467Z,10.60
2022-10-23T07:08:41.645Z,10.80
2022-10-23T07:11:29.312Z,10.60
2022-10-23T07:13:58.818Z,10.90
2022-10-23T07:16:27.495Z,11.20
2022-10-23T07:18:59.938Z,11.10
2022-10-23T07:21:30.065Z,11.10
2022-10-23T07:24:10.296Z,11.10
2022-10-23T07:26:41.720Z,11.20
2022-10-23T07:29:10.490Z,11.10
2022-10-23T07:31:38.605Z,10.90
2022-10-23T07:34:25.540Z,10.90
2022-10-23T07:37:12.094Z,11.00
2022-10-23T07:39:40.084Z,11.00
2022-10-23T07:42:09.394Z,11.10
2022-10-23T07:44:37.211Z,11.00
2022-10-23T07:47:05.479Z,10.70
2022-10-23T07:49:33.615Z,10.80
2022-10-23T07:54:40.134Z,11.30
2022-10-23T07:57:20.958Z,11.40
2022-10-23T08:00:11.728Z,11.20
2022-10-23T08:02:42.765Z,11.10
2022-10-23T08:05:12.883Z,11.30
2022-10-23T08:07:52.944Z,11.50
2022-10-23T08:10:21.339Z,11.70
2022-10-23T08:12:49.312Z,12.00
2022-10-23T08:15:19.978Z,11.90
2022-10-23T08:17:54.650Z,12.00
2022-10-23T08:20:41.756Z,12.00
2022-10-23T08:23:10.554Z,12.20
2022-10-23T08:25:40.648Z,12.40
2022-10-23T08:28:10.495Z,12.60
2022-10-23T08:30:50.840Z,12.70
2022-10-23T08:33:19.655Z,12.60
2022-10-23T08:35:48.087Z,13.20
2022-10-23T08:38:23.842Z,14.50
2022-10-23T08:40:54.109Z,16.10
2022-10-23T08:43:44.057Z,17.00
2022-10-23T08:46:45.128Z,19.60
2022-10-23T08:49:41.141Z,19.00
2022-10-23T08:52:22.344Z,18.30
2022-10-23T08:54:58.433Z,17.30
2022-10-23T08:57:37.774Z,16.80
2022-10-23T09:00:17.157Z,16.80
2022-10-23T09:02:53.836Z,16.60
2022-10-23T09:05:32.726Z,16.40
2022-10-23T09:08:07.094Z,16.10
2022-10-23T09:10:51.745Z,15.90
2022-10-23T09:13:49.319Z,15.40
2022-10-23T09:16:27.302Z,15.50
2022-10-23T09:18:56.848Z,15.50
2022-10-23T09:21:31.335Z,15.00
2022-10-23T09:23:59.749Z,15.30
2022-10-23T09:26:27.907Z,16.00
2022-10-23T09:29:15.546Z,16.90
2022-10-23T09:31:55.935Z,20.60
2022-10-23T09:34:25.540Z,20.70
2022-10-23T09:37:00.178Z,21.70
2022-10-23T09:39:35.705Z,22.40
2022-10-23T09:42:21.414Z,24.60
2022-10-23T09:44:52.143Z,27.40
2022-10-23T09:47:24.763Z,30.00
2022-10-23T09:49:57.577Z,31.00
2022-10-23T09:52:35.241Z,31.00
2022-10-23T09:55:18.947Z,33.40
2022-10-23T09:57:48.054Z,33.50
2022-10-23T10:00:25.936Z,35.10
2022-10-23T10:03:06.581Z,35.60
2022-10-23T10:06:03.921Z,37.60
2022-10-23T10:08:46.800Z,37.30
2022-10-23T10:11:39.750Z,35.10
2022-10-23T10:14:10.624Z,35.70
2022-10-23T10:16:51.146Z,36.70
2022-10-23T10:19:53.516Z,34.50
2022-10-23T10:22:27.541Z,36.00
2022-10-23T10:25:32.554Z,33.80
2022-10-23T10:28:29.771Z,38.70
2022-10-23T10:31:15.875Z,40.40
2022-10-23T10:34:25.474Z,41.10
2022-10-23T10:37:02.771Z,39.20
2022-10-23T10:39:38.595Z,39.00
2022-10-23T10:42:25.558Z,39.60
2022-10-23T10:45:19.916Z,38.50
2022-10-23T10:48:19.088Z,41.50
2022-10-23T10:51:33.301Z,39.60
2022-10-23T10:54:19.058Z,40.50
2022-10-23T10:56:48.888Z,40.10
2022-10-23T10:59:27.712Z,37.90
2022-10-23T11:02:17.314Z,40.30
2022-10-23T11:05:11.701Z,32.80
2022-10-23T11:07:53.107Z,34.00
2022-10-23T11:10:21.332Z,35.00
2022-10-23T11:12:50.519Z,32.40
2022-10-23T11:15:45.644Z,32.20
2022-10-23T11:18:25.676Z,30.30
2022-10-23T11:21:08.482Z,28.40
2022-10-23T11:24:01.151Z,25.60
2022-10-23T11:26:52.541Z,26.50
2022-10-23T11:29:41.172Z,26.90
2022-10-23T11:32:30.574Z,25.70
2022-10-23T11:35:23.066Z,27.40
2022-10-23T11:38:18.561Z,27.50
2022-10-23T11:40:56.659Z,27.80
2022-10-23T11:43:46.702Z,28.00
2022-10-23T11:46:29.835Z,28.60
2022-10-23T11:48:58.701Z,30.20
2022-10-23T11:51:38.171Z,29.80
2022-10-23T11:54:27.452Z,30.30
2022-10-23T11:57:09.913Z,29.50
2022-10-23T11:59:50.645Z,26.90
2022-10-23T12:02:32.522Z,26.40
2022-10-23T12:05:10.368Z,28.50
2022-10-23T12:07:40.517Z,27.80
2022-10-23T12:10:22.915Z,26.20
2022-10-23T12:13:01.139Z,25.70
2022-10-23T12:15:28.883Z,25.60
2022-10-23T12:18:15.198Z,25.40
2022-10-23T12:20:43.081Z,25.30
2022-10-23T12:23:26.910Z,27.50
2022-10-23T12:26:23.961Z,28.50
2022-10-23T12:28:54.774Z,28.50
2022-10-23T12:31:48.120Z,28.30
2022-10-23T12:34:34.826Z,28.10
2022-10-23T12:37:27.042Z,27.60
2022-10-23T12:39:59.625Z,26.90
2022-10-23T12:42:29.929Z,26.60
2022-10-23T12:45:21.851Z,25.10
2022-10-23T12:47:50.989Z,25.20
2022-10-23T12:50:31.631Z,24.60
2022-10-23T12:53:02.643Z,24.40
2022-10-23T12:55:53.548Z,24.10
2022-10-23T12:58:22.629Z,23.60
2022-10-23T13:00:55.037Z,24.30
2022-10-23T13:03:25.443Z,24.20
2022-10-23T13:05:55.762Z,25.10
2022-10-23T13:08:24.489Z,25.30
2022-10-23T13:11:18.583Z,26.20
2022-10-23T13:13:49.910Z,24.90
2022-10-23T13:16:28.374Z,25.70
2022-10-23T13:18:56.253Z,25.40
2022-10-23T13:21:26.872Z,25.50
2022-10-23T13:23:55.867Z,25.90
2022-10-23T13:26:38.139Z,24.80
2022-10-23T13:29:21.252Z,25.80
2022-10-23T13:31:50.403Z,26.40
2022-10-23T13:34:38.624Z,25.30
2022-10-23T13:37:25.138Z,21.60
2022-10-23T13:40:02.224Z,22.40
2022-10-23T13:42:30.137Z,22.40
2022-10-23T13:44:58.338Z,23.60
2022-10-23T13:47:26.730Z,23.90
2022-10-23T13:49:54.509Z,24.30
2022-10-23T13:52:23.998Z,23.20
2022-10-23T13:54:51.782Z,23.80
2022-10-23T13:57:19.609Z,23.20
2022-10-23T13:59:47.769Z,22.50
2022-10-23T14:02:24.087Z,22.30
2022-10-23T14:04:52.193Z,21.60
2022-10-23T14:07:19.971Z,21.70
2022-10-23T14:09:50.447Z,20.00
2022-10-23T14:12:18.851Z,20.40
2022-10-23T14:14:52.464Z,20.30
2022-10-23T14:17:21.535Z,19.60
2022-10-23T14:19:51.655Z,18.70
2022-10-23T14:22:20.282Z,18.80
2022-10-23T14:24:47.971Z,17.60
2022-10-23T14:27:16.182Z,17.20
2022-10-23T14:29:44.380Z,16.70
2022-10-23T14:32:12.817Z,16.60
2022-10-23T14:34:43.699Z,16.80
2022-10-23T14:37:12.018Z,16.50
2022-10-23T14:39:40.255Z,16.20
2022-10-23T14:42:08.673Z,16.10
2022-10-23T14:47:05.305Z,15.80
2022-10-23T14:49:36.596Z,15.50
2022-10-23T14:52:05.683Z,15.30
2022-10-23T14:54:35.509Z,15.20
2022-10-23T14:57:04.140Z,15.00
2022-10-23T14:59:32.740Z,14.80
2022-10-23T15:02:01.350Z,14.60
2022-10-23T15:04:29.676Z,14.50
2022-10-23T15:06:57.665Z,14.40
2022-10-23T15:09:25.956Z,14.30
2022-10-23T15:11:54.114Z,14.10
2022-10-23T15:14:22.446Z,14.00
2022-10-23T15:16:50.443Z,13.70
2022-10-23T15:19:19.069Z,13.50
2022-10-23T15:21:49.247Z,13.40
2022-10-23T15:24:18.903Z,13.20
2022-10-23T15:26:47.743Z,13.30
2022-10-23T15:29:16.431Z,12.80
2022-10-23T15:31:48.200Z,12.70
2022-10-23T15:34:21.807Z,12.60
2022-10-23T15:36:52.133Z,12.50
2022-10-23T15:39:34.107Z,12.30
2022-10-23T15:42:04.508Z,12.30
2022-10-23T15:44:33.661Z,12.20
2022-10-23T15:47:01.705Z,12.30
2022-10-23T15:49:30.362Z,12.20
2022-10-23T15:51:58.694Z,12.10
2022-10-23T15:54:29.308Z,11.90
2022-10-23T15:56:59.964Z,11.70
2022-10-23T15:59:28.902Z,11.60
2022-10-23T16:01:57.305Z,11.50
2022-10-23T16:04:25.684Z,11.40
2022-10-23T16:06:53.867Z,11.40
2022-10-23T16:09:22.126Z,11.30
2022-10-23T16:11:49.955Z,11.20
2022-10-23T16:14:18.402Z,11.10
2022-10-23T16:16:46.449Z,11.00
2022-10-23T16:19:14.760Z,10.70
2022-10-23T16:21:43.020Z,10.50
2022-10-23T16:24:11.225Z,10.50
2022-10-23T16:26:39.374Z,10.50
2022-10-23T16:29:09.152Z,10.50
2022-10-23T16:31:37.781Z,10.60
2022-10-23T16:34:06.429Z,10.60
2022-10-23T16:36:35.038Z,10.40
2022-10-23T16:39:23.823Z,10.30
2022-10-23T16:42:10.354Z,10.30
2022-10-23T16:45:14.386Z,10.20
2022-10-23T16:47:42.476Z,10.00
2022-10-23T16:50:10.270Z,10.00
2022-10-23T16:52:38.969Z,10.00
2022-10-23T16:55:07.822Z,10.00
2022-10-23T16:57:36.622Z,9.90
2022-10-23T17:00:06.903Z,9.90
2022-10-23T17:02:34.942Z,9.90
2022-10-23T17:05:03.432Z,9.80
2022-10-23T17:07:32.689Z,9.80
2022-10-23T17:10:00.370Z,9.60
2022-10-23T17:12:28.900Z,9.80
2022-10-23T17:14:59.192Z,9.80
2022-10-23T17:17:27.412Z,9.80
2022-10-23T17:19:55.902Z,9.80
2022-10-23T17:22:24.183Z,9.80
2022-10-23T17:24:54.190Z,9.80
2022-10-23T17:27:22.640Z,9.80
2022-10-23T17:29:50.604Z,9.90
2022-10-23T17:32:18.844Z,9.90
2022-10-23T17:34:48.390Z,9.90
2022-10-23T17:37:17.460Z,9.90
2022-10-23T17:39:45.422Z,10.00
2022-10-23T17:42:13.678Z,9.90
2022-10-23T17:44:41.956Z,9.90
2022-10-23T17:47:09.968Z,9.90
2022-10-23T17:49:42.786Z,9.80
2022-10-23T17:52:15.236Z,9.90
2022-10-23T17:54:43.341Z,9.90
2022-10-23T17:57:11.429Z,9.80
2022-10-23T17:59:40.472Z,9.80
2022-10-23T18:02:11.894Z,9.80
2022-10-23T18:04:40.342Z,9.80
2022-10-23T18:07:08.200Z,9.80
2022-10-23T18:09:37.911Z,9.80
2022-10-23T18:12:06.368Z,9.90
2022-10-23T18:14:37.321Z,9.90
2022-10-23T18:17:05.881Z,9.90
2022-10-23T18:19:33.735Z,9.70
2022-10-23T18:22:01.449Z,9.80
2022-10-23T18:24:30.134Z,9.70
2022-10-23T18:26:57.976Z,9.50
2022-10-23T18:29:26.106Z,9.50
2022-10-23T18:31:54.421Z,9.50
2022-10-23T18:34:24.402Z,9.40
2022-10-23T18:36:55.811Z,9.40
2022-10-23T18:39:25.343Z,9.30
2022-10-23T18:41:56.766Z,9.20
2022-10-23T18:44:28.004Z,9.10
2022-10-23T18:46:57.754Z,9.10
2022-10-23T18:49:26.033Z,8.90
2022-10-23T18:51:53.966Z,8.90
2022-10-23T18:54:22.365Z,8.80
2022-10-23T18:56:50.829Z,8.80
2022-10-23T18:59:20.886Z,8.70
2022-10-23T19:01:50.285Z,8.70
2022-10-23T19:04:18.878Z,8.60
2022-10-23T19:06:48.449Z,8.60
2022-10-23T19:09:16.746Z,8.60
2022-10-23T19:11:46.122Z,8.60
2022-10-23T19:14:14.473Z,8.50
2022-10-23T19:16:53.752Z,8.50
2022-10-23T19:19:28.191Z,8.30
2022-10-23T19:21:56.813Z,8.40
2022-10-23T19:24:51.412Z,8.30
2022-10-23T19:27:20.439Z,8.20
2022-10-23T19:29:52.202Z,8.20
2022-10-23T19:32:22.642Z,8.10
2022-10-23T19:34:50.317Z,8.10
2022-10-23T19:37:18.364Z,8.10
2022-10-23T19:39:46.483Z,8.10
2022-10-23T19:42:14.582Z,8.10
2022-10-23T19:44:42.300Z,8.00
2022-10-23T19:47:10.094Z,8.10
2022-10-23T19:49:39.008Z,8.00
2022-10-23T19:52:07.464Z,8.00
2022-10-23T19:54:35.290Z,8.00
2022-10-23T19:57:04.088Z,8.00
2022-10-23T19:59:31.959Z,7.90
2022-10-23T20:01:59.967Z,7.90
2022-10-23T20:04:30.127Z,7.90
2022-10-23T20:06:58.660Z,8.10
2022-10-23T20:09:26.480Z,8.10
2022-10-23T20:11:54.547Z,8.00
2022-10-23T20:14:22.301Z,7.90
2022-10-23T20:16:53.525Z,7.80
2022-10-23T20:19:24.524Z,7.80
2022-10-23T20:21:52.152Z,7.80
2022-10-23T20:24:21.150Z,7.80
2022-10-23T20:26:52.022Z,7.90
2022-10-23T20:29:21.022Z,7.80
2022-10-23T20:31:48.936Z,7.80
2022-10-23T20:34:16.667Z,7.80
2022-10-23T20:36:47.557Z,7.70
2022-10-23T20:39:22.170Z,7.70
2022-10-23T20:41:50.078Z,7.60
2022-10-23T20:44:19.096Z,7.60
2022-10-23T20:46:47.255Z,7.60
2022-10-23T20:49:15.960Z,7.60
2022-10-23T20:51:43.949Z,7.60
2022-10-23T20:54:12.409Z,7.50
2022-10-23T20:56:41.671Z,7.50
2022-10-23T20:59:18.233Z,7.60
2022-10-23T21:01:53.322Z,7.50
2022-10-23T21:04:24.539Z,7.50
2022-10-23T21:07:11.186Z,7.40
2022-10-23T21:09:40.234Z,7.40
2022-10-23T21:12:08.483Z,7.40
2022-10-23T21:14:36.533Z,7.30
2022-10-23T21:17:04.860Z,7.40
2022-10-23T21:19:32.855Z,7.40
2022-10-23T21:22:00.572Z,7.20
2022-10-23T21:24:28.381Z,7.20
2022-10-23T21:26:56.304Z,7.20
2022-10-23T21:29:24.073Z,7.10
2022-10-23T21:31:57.234Z,7.20
2022-10-23T21:34:26.369Z,7.10
2022-10-23T21:37:11.840Z,7.10
2022-10-23T21:39:41.519Z,7.10
2022-10-23T21:42:09.719Z,7.20
2022-10-23T21:44:38.547Z,7.10
2022-10-23T21:47:06.281Z,7.10
2022-10-23T21:49:34.214Z,7.10
2022-10-23T21:52:02.004Z,7.10
2022-10-23T21:54:29.872Z,7.00
2022-10-23T21:56:59.115Z,7.00
2022-10-23T21:59:30.131Z,6.90
2022-10-23T22:01:59.551Z,6.80
2022-10-23T22:04:27.523Z,6.80
2022-10-23T22:06:55.584Z,6.90
2022-10-23T22:09:23.674Z,6.90
2022-10-23T22:11:55.657Z,7.00
2022-10-23T22:14:24.466Z,6.90
2022-10-23T22:16:52.695Z,7.00
2022-10-23T22:19:22.423Z,6.90
2022-10-23T22:21:51.002Z,7.00
2022-10-23T22:24:19.373Z,7.10
2022-10-23T22:26:50.442Z,7.20
2022-10-23T22:29:21.922Z,7.20
2022-10-23T22:31:50.290Z,7.30
2022-10-23T22:34:26.817Z,7.20
2022-10-23T22:37:02.041Z,7.30
2022-10-23T22:39:29.801Z,7.30
2022-10-23T22:41:57.874Z,7.20
2022-10-23T22:44:25.542Z,7.20
2022-10-23T22:46:53.761Z,7.30
2022-10-23T22:49:21.478Z,7.30
2022-10-23T22:51:49.246Z,7.30
2022-10-23T22:54:17.340Z,7.40
2022-10-23T22:56:46.158Z,7.40
2022-10-23T22:59:14.844Z,7.50
2022-10-23T23:01:46.351Z,7.40
2022-10-23T23:07:12.443Z,7.30
2022-10-23T23:09:43.042Z,7.40
2022-10-23T23:12:14.177Z,7.30
2022-10-23T23:14:43.254Z,7.30
2022-10-23T23:17:11.903Z,7.30
2022-10-23T23:19:40.091Z,7.40
2022-10-23T23:22:08.715Z,7.40
2022-10-23T23:24:36.991Z,7.40
2022-10-23T23:27:04.828Z,7.40
2022-10-23T23:29:32.948Z,7.40
2022-10-23T23:32:00.695Z,7.40
2022-10-23T23:34:29.015Z,7.40
2022-10-23T23:36:57.059Z,7.40
2022-10-23T23:39:26.271Z,7.40
2022-10-23T23:41:53.769Z,7.40
2022-10-23T23:44:21.404Z,7.50
2022-10-23T23:46:48.977Z,7.50
2022-10-23T23:49:16.658Z,7.50
2022-10-23T23:51:44.280Z,7.50
2022-10-23T23:54:12.159Z,7.40
2022-10-23T23:56:39.843Z,7.50
2022-10-23T23:59:07.477Z,7.50
